Time;durP1;ratioP1;P1;durP2;ratioP2;P2;SDS_P1;SDS_P2;PMS_P1;PMS_P2;Temp;Humidity;BMP_temperature;BMP_pressure;BME280_temperature;BME280_humidity;BME280_pressure;Samples;Min_cycle;Max_cycle;Signal;HPM_P1;HPM_P2
2022/03/04 00:01:32;;;;;;;64.50;28.00;;;;;;;-0.34;61.85;100189.50;4438562;32;20101;-77
2022/03/04 00:04:00;;;;;;;65.00;29.48;;;;;;;-0.37;62.50;100192.00;4438585;32;20098;-76
2022/03/04 00:06:27;;;;;;;69.50;28.35;;;;;;;-0.46;64.55;100192.59;4438606;32;20494;-76
2022/03/04 00:08:54;;;;;;;63.13;29.35;;;;;;;-0.55;64.78;100194.91;4438525;32;20501;-76
2022/03/04 00:11:22;;;;;;;67.72;29.08;;;;;;;-0.55;65.58;100203.56;4438483;32;20089;-77
2022/03/04 00:13:49;;;;;;;56.55;26.02;;;;;;;-0.47;65.68;100202.91;4438270;32;20472;-77
2022/03/04 00:16:16;;;;;;;62.53;28.73;;;;;;;-0.09;65.08;100198.84;4424073;32;20113;-77
2022/03/04 00:18:44;;;;;;;60.72;27.23;;;;;;;0.05;63.31;100201.81;4423958;32;20158;-77
2022/03/04 00:21:11;;;;;;;60.92;27.65;;;;;;;0.12;62.09;100206.31;4411422;32;20511;-77
2022/03/04 00:23:39;;;;;;;62.20;26.40;;;;;;;0.23;61.06;100210.94;4438346;32;20256;-76
2022/03/04 00:26:07;;;;;;;64.32;28.95;;;;;;;0.28;60.21;100205.00;4438336;32;20154;-77
2022/03/04 00:28:34;;;;;;;68.78;26.33;;;;;;;0.21;60.61;100207.44;4423888;32;20153;-77
2022/03/04 00:31:02;;;;;;;60.05;25.90;;;;;;;0.15;60.86;100199.50;4438171;32;20136;-77
2022/03/04 00:33:30;;;;;;;73.30;28.33;;;;;;;0.27;59.84;100195.47;4438116;32;20452;-77
2022/03/04 00:35:57;;;;;;;58.90;26.25;;;;;;;0.19;59.98;100203.94;4438190;32;20105;-77
2022/03/04 00:38:24;;;;;;;57.95;24.95;;;;;;;0.22;60.21;100206.59;4438032;32;20148;-77
2022/03/04 00:40:51;;;;;;;63.90;28.98;;;;;;;0.28;60.28;100205.88;4438179;32;20121;-77
2022/03/04 00:43:19;;;;;;;69.93;29.63;;;;;;;0.38;60.01;100197.50;4438102;32;20096;-77
2022/03/04 00:45:46;;;;;;;59.53;28.62;;;;;;;0.40;60.17;100195.84;4438065;32;20100;-77
2022/03/04 00:48:13;;;;;;;71.28;27.90;;;;;;;0.53;59.97;100191.88;4423679;32;20159;-77
2022/03/04 00:50:40;;;;;;;68.75;27.17;;;;;;;0.59;59.20;100192.00;4438155;32;20085;-77
2022/03/04 00:53:07;;;;;;;63.30;27.58;;;;;;;0.60;59.09;100183.41;4439258;32;20602;-77
2022/03/04 00:55:37;;;;;;;67.40;28.70;;;;;;;0.60;59.53;100182.50;4439849;32;20168;-77
2022/03/04 00:58:06;;;;;;;66.78;27.98;;;;;;;0.53;59.97;100190.97;4440022;32;20154;-77
2022/03/04 01:00:35;;;;;;;74.45;28.35;;;;;;;0.55;60.37;100192.75;4425713;32;20115;-77
2022/03/04 01:03:04;;;;;;;70.28;29.70;;;;;;;0.56;59.91;100185.87;4425613;32;20121;-77
2022/03/04 01:05:31;;;;;;;61.78;28.95;;;;;;;0.59;59.18;100188.53;4439880;32;20162;-77
2022/03/04 01:07:58;;;;;;;67.30;27.60;;;;;;;0.55;58.93;100182.41;4439831;32;20085;-77
2022/03/04 01:10:26;;;;;;;68.37;27.55;;;;;;;0.48;59.36;100189.13;4425285;32;20090;-77
2022/03/04 01:12:53;;;;;;;61.25;27.25;;;;;;;0.73;58.21;100181.97;4439520;32;20105;-77
2022/03/04 01:15:20;;;;;;;67.55;28.50;;;;;;;0.83;57.94;100189.13;4439835;32;20536;-77
2022/03/04 01:17:48;;;;;;;58.13;26.85;;;;;;;0.67;59.82;100187.91;4439674;32;20131;-77
2022/03/04 01:20:15;;;;;;;68.37;26.90;;;;;;;0.56;61.32;100188.44;4425405;32;20463;-77
2022/03/04 01:22:42;;;;;;;58.83;24.58;;;;;;;0.57;60.18;100188.50;4439826;32;20667;-77
2022/03/04 01:25:11;;;;;;;64.65;27.13;;;;;;;0.66;59.83;100195.63;4439854;32;20165;-77
2022/03/04 01:27:38;;;;;;;64.03;26.95;;;;;;;0.73;59.95;100191.47;4439702;32;20130;-77
2022/03/04 01:30:07;;;;;;;56.42;26.33;;;;;;;0.69;60.37;100181.03;4425096;32;20115;-77
2022/03/04 01:32:36;;;;;;;61.67;25.58;;;;;;;0.73;60.89;100179.37;4439747;32;20094;-77
2022/03/04 01:35:04;;;;;;;54.55;25.23;;;;;;;0.65;61.05;100173.13;4425304;32;20494;-77
2022/03/04 01:37:31;;;;;;;61.63;26.83;;;;;;;0.57;61.51;100174.69;4424957;32;20085;-77
2022/03/04 01:39:59;;;;;;;58.00;26.45;;;;;;;0.63;64.55;100180.00;4439615;32;20085;-77
2022/03/04 01:42:26;;;;;;;67.40;26.15;;;;;;;0.60;62.03;100179.91;4412906;32;20127;-77
2022/03/04 01:44:53;;;;;;;61.17;24.33;;;;;;;0.59;63.79;100186.81;4439725;32;20084;-77
2022/03/04 01:47:21;;;;;;;61.33;25.40;;;;;;;0.57;64.54;100178.12;4439578;32;20498;-77
2022/03/04 01:49:48;;;;;;;62.95;25.75;;;;;;;0.55;64.56;100181.53;4439542;32;20527;-77
2022/03/04 01:52:16;;;;;;;69.00;27.67;;;;;;;0.56;64.51;100180.69;4439795;32;20162;-77
2022/03/04 01:54:43;;;;;;;56.88;25.90;;;;;;;0.52;64.40;100182.31;4439475;32;20213;-77
2022/03/04 01:57:10;;;;;;;60.88;27.92;;;;;;;0.57;64.08;100180.72;4439374;32;20107;-77
2022/03/04 01:59:37;;;;;;;57.58;25.77;;;;;;;0.66;63.93;100174.88;4439537;32;20093;-77
2022/03/04 02:02:06;;;;;;;53.83;24.42;;;;;;;0.63;64.96;100183.44;4439364;32;20154;-77
2022/03/04 02:04:35;;;;;;;61.88;26.80;;;;;;;0.70;65.28;100180.16;4438604;32;20733;-77
2022/03/04 02:07:03;;;;;;;61.45;26.92;;;;;;;0.67;64.90;100185.31;4439392;32;20598;-77
2022/03/04 02:09:30;;;;;;;67.80;27.70;;;;;;;0.58;65.40;100182.47;4424927;32;20123;-77
2022/03/04 02:11:58;;;;;;;61.08;27.65;;;;;;;0.61;65.60;100179.97;4439465;32;20504;-77
2022/03/04 02:14:25;;;;;;;70.70;27.52;;;;;;;0.66;65.59;100180.06;4439398;32;20105;-77
2022/03/04 02:16:53;;;;;;;60.88;26.05;;;;;;;0.63;66.19;100177.41;4439571;32;20154;-77
2022/03/04 02:19:22;;;;;;;59.85;26.20;;;;;;;0.64;66.33;100177.44;4425116;32;20142;-77
2022/03/04 02:21:55;;;;;;;56.03;25.95;;;;;;;0.66;65.71;100173.16;4424945;32;20113;-77
2022/03/04 02:24:25;;;;;;;56.70;26.00;;;;;;;0.68;65.62;100174.09;4439820;32;20579;-77
2022/03/04 02:26:54;;;;;;;59.65;26.17;;;;;;;0.79;65.31;100171.75;4439587;32;20085;-77
2022/03/04 02:29:22;;;;;;;57.35;24.67;;;;;;;0.85;65.36;100164.12;4439443;32;20512;-77
2022/03/04 02:31:50;;;;;;;48.97;22.25;;;;;;;0.91;65.95;100169.44;4439424;32;20433;-77
2022/03/04 02:34:18;;;;;;;38.03;20.37;;;;;;;1.07;66.99;100164.62;4425176;32;20131;-77
2022/03/04 02:36:46;;;;;;;39.10;20.02;;;;;;;1.23;67.19;100177.09;4439328;32;20460;-77
2022/03/04 02:39:14;;;;;;;40.78;19.65;;;;;;;1.32;68.10;100181.62;4439526;32;20093;-77
2022/03/04 02:41:41;;;;;;;46.95;22.10;;;;;;;1.38;68.70;100186.94;4439371;32;20097;-77
2022/03/04 02:44:11;;;;;;;47.03;20.25;;;;;;;1.42;68.61;100189.66;4439355;32;20089;-77
2022/03/04 02:46:39;;;;;;;42.03;20.30;;;;;;;1.42;68.62;100189.66;4439242;32;20077;-77
2022/03/04 02:49:08;;;;;;;42.22;20.92;;;;;;;1.42;68.95;100191.38;4439347;32;20097;-77
2022/03/04 02:51:36;;;;;;;46.20;20.05;;;;;;;1.49;69.03;100184.59;4439420;32;20526;-77
2022/03/04 02:54:04;;;;;;;43.85;20.00;;;;;;;1.49;68.93;100187.19;4424939;32;20184;-77
2022/03/04 02:56:31;;;;;;;51.22;21.10;;;;;;;1.51;68.88;100191.53;4439316;32;20550;-77
2022/03/04 02:58:58;;;;;;;52.62;20.90;;;;;;;1.43;69.21;100191.38;4424947;32;20465;-77
2022/03/04 03:01:26;;;;;;;39.50;20.85;;;;;;;1.41;69.43;100193.09;4439403;32;20212;-77
2022/03/04 03:03:53;;;;;;;48.28;20.02;;;;;;;1.34;69.29;100203.28;4439249;32;20135;-77
2022/03/04 03:06:21;;;;;;;48.45;20.58;;;;;;;1.26;70.21;100197.06;4439143;32;20396;-77
2022/03/04 03:08:49;;;;;;;40.03;20.45;;;;;;;1.20;70.64;100200.38;4439277;32;20127;-77
2022/03/04 03:11:16;;;;;;;48.40;21.02;;;;;;;1.11;70.91;100201.03;4424641;32;20101;-77
2022/03/04 03:13:43;;;;;;;52.72;20.88;;;;;;;1.00;71.09;100197.34;4411873;32;20159;-77
2022/03/04 03:16:11;;;;;;;41.83;20.62;;;;;;;0.94;71.58;100204.97;4424589;32;20093;-77
2022/03/04 03:18:38;;;;;;;46.42;20.95;;;;;;;0.80;71.53;100212.41;4439022;32;20097;-77
2022/03/04 03:21:05;;;;;;;49.20;21.25;;;;;;;0.66;71.64;100209.47;4438953;32;20105;-77
2022/03/04 03:23:33;;;;;;;43.92;20.67;;;;;;;0.55;72.16;100212.63;4439155;32;20161;-77
2022/03/04 03:26:00;;;;;;;46.20;21.60;;;;;;;0.43;72.51;100210.63;4439019;32;20445;-77
2022/03/04 03:28:27;;;;;;;45.05;20.62;;;;;;;0.30;73.19;100213.72;4424783;32;20105;-77
2022/03/04 03:30:56;;;;;;;45.00;20.92;;;;;;;0.22;73.73;100213.50;4438775;32;20459;-77
2022/03/04 03:33:23;;;;;;;42.97;20.35;;;;;;;0.15;74.27;100214.19;4438943;32;20100;-77
2022/03/04 03:35:54;;;;;;;41.20;21.23;;;;;;;0.09;74.74;100214.88;4438829;32;20081;-77
2022/03/04 03:38:23;;;;;;;36.63;18.80;;;;;;;0.08;74.33;100222.63;4425125;32;20162;-77
2022/03/04 03:40:50;;;;;;;45.63;20.35;;;;;;;0.03;73.94;100219.00;4438709;32;20163;-77
2022/03/04 03:43:39;;;;;;;44.78;21.20;;;;;;;-0.02;74.29;100219.75;4438798;32;20131;-77
2022/03/04 03:46:06;;;;;;;44.35;19.48;;;;;;;-0.13;75.29;100223.75;4439038;32;20089;-77
2022/03/04 03:48:34;;;;;;;47.67;21.42;;;;;;;-0.25;75.93;100219.13;4438743;32;20538;-77
2022/03/04 03:51:02;;;;;;;45.65;21.48;;;;;;;-0.23;76.07;100220.88;4424276;32;20143;-77
2022/03/04 03:53:29;;;;;;;46.22;22.40;;;;;;;-0.22;76.10;100226.09;4438687;32;20092;-77
2022/03/04 03:55:56;;;;;;;47.40;22.83;;;;;;;-0.22;76.63;100222.63;4438757;32;20119;-77
2022/03/04 03:58:24;;;;;;;54.40;22.45;;;;;;;-0.23;76.66;100215.69;4411575;32;20089;-77
2022/03/04 04:00:51;;;;;;;59.33;24.33;;;;;;;-0.16;76.26;100228.84;4438692;32;20105;-77
2022/03/04 04:03:18;;;;;;;58.92;24.35;;;;;;;-0.28;77.00;100221.62;4438548;32;20527;-77
2022/03/04 04:05:46;;;;;;;59.78;25.17;;;;;;;-0.34;77.40;100224.03;4438464;32;20154;-77
2022/03/04 04:08:13;;;;;;;59.83;25.33;;;;;;;-0.33;78.02;100225.78;4438574;32;20097;-77
2022/03/04 04:10:40;;;;;;;61.88;25.12;;;;;;;-0.40;77.70;100218.66;4438552;32;20124;-77
2022/03/04 04:13:07;;;;;;;56.67;24.87;;;;;;;-0.45;78.64;100215.06;4438369;32;20100;-77
2022/03/04 04:15:34;;;;;;;69.40;27.85;;;;;;;-0.45;79.00;100228.00;4424068;32;20448;-77
2022/03/04 04:18:02;;;;;;;55.05;25.20;;;;;;;-0.23;78.90;100220.88;4438354;32;20077;-77
2022/03/04 04:20:29;;;;;;;56.67;26.83;;;;;;;-0.01;78.41;100224.09;4438356;32;20200;-77
2022/03/04 04:22:57;;;;;;;55.70;24.87;;;;;;;0.01;77.99;100223.28;4438295;32;20163;-77
2022/03/04 04:25:24;;;;;;;55.03;24.65;;;;;;;-0.10;78.28;100218.69;4438331;32;20115;-77
2022/03/04 04:27:51;;;;;;;59.20;25.95;;;;;;;-0.12;78.24;100225.50;4423244;32;20148;-77
2022/03/04 04:30:18;;;;;;;60.12;26.23;;;;;;;-0.05;78.06;100227.44;4423895;32;20506;-77
2022/03/04 04:32:46;;;;;;;53.35;24.60;;;;;;;-0.02;78.96;100227.53;4438392;32;20104;-77
2022/03/04 04:35:13;;;;;;;64.50;25.83;;;;;;;-0.12;78.76;100228.09;4438232;32;20103;-77
2022/03/04 04:37:41;;;;;;;57.47;25.77;;;;;;;-0.09;78.71;100227.31;4423854;32;20085;-77
2022/03/04 04:40:09;;;;;;;65.43;26.85;;;;;;;-0.10;80.32;100231.62;4438124;32;20093;-77
2022/03/04 04:42:36;;;;;;;59.65;27.13;;;;;;;-0.09;79.84;100229.91;4423689;32;20178;-77
2022/03/04 04:45:04;;;;;;;53.53;25.35;;;;;;;-0.07;79.31;100230.81;4438082;32;20500;-77
2022/03/04 04:47:31;;;;;;;52.60;24.40;;;;;;;-0.06;78.75;100236.06;4438041;32;20112;-77
2022/03/04 04:49:58;;;;;;;53.30;24.87;;;;;;;0.02;78.21;100240.56;4423593;32;20162;-77
2022/03/04 04:52:26;;;;;;;65.82;26.48;;;;;;;0.07;77.83;100239.88;4438004;32;20177;-77
2022/03/04 04:54:53;;;;;;;60.45;24.95;;;;;;;0.02;79.42;100237.97;4437858;32;20093;-77
2022/03/04 04:57:21;;;;;;;60.88;25.55;;;;;;;-0.02;79.38;100240.47;4437875;32;20150;-77
2022/03/04 04:59:48;;;;;;;54.90;24.45;;;;;;;0.07;78.32;100247.66;4438778;32;20772;-77
2022/03/04 05:02:15;;;;;;;49.60;24.37;;;;;;;0.07;78.46;100250.25;4438743;32;20139;-78
2022/03/04 05:04:42;;;;;;;51.65;22.83;;;;;;;0.06;77.82;100256.25;4438245;32;20081;-77
2022/03/04 05:07:10;;;;;;;48.33;22.00;;;;;;;0.03;78.10;100256.16;4438624;32;20085;-77
2022/03/04 05:09:37;;;;;;;48.85;22.95;;;;;;;0.02;78.05;100261.28;4438728;32;20097;-77
2022/03/04 05:12:05;;;;;;;55.88;23.73;;;;;;;-0.04;79.55;100265.44;4438164;32;20108;-78
2022/03/04 05:14:32;;;;;;;52.25;21.98;;;;;;;0.05;78.23;100270.03;4438394;32;20404;-78
2022/03/04 05:16:59;;;;;;;51.17;22.58;;;;;;;0.07;78.14;100275.25;4423980;32;20203;-78
2022/03/04 05:19:26;;;;;;;48.72;22.48;;;;;;;0.08;78.27;100271.84;4422765;32;20132;-78
2022/03/04 05:21:54;;;;;;;49.30;23.00;;;;;;;0.09;78.86;100283.94;4398335;32;20704;-77
2022/03/04 05:24:21;;;;;;;52.33;22.77;;;;;;;0.16;78.76;100289.34;4438005;32;20086;-78
2022/03/04 05:26:49;;;;;;;42.83;22.13;;;;;;;0.52;75.37;100298.09;4438361;32;20085;-78
2022/03/04 05:29:16;;;;;;;49.10;23.42;;;;;;;0.69;74.91;100296.84;4424036;32;20588;-78
2022/03/04 05:31:44;;;;;;;53.33;24.85;;;;;;;0.69;75.71;100296.84;4438204;32;20121;-77
2022/03/04 05:34:12;;;;;;;46.60;22.13;;;;;;;0.68;76.08;100301.16;4438239;32;20093;-78
2022/03/04 05:36:40;;;;;;;48.03;22.25;;;;;;;0.85;74.65;100292.91;4424185;32;20496;-78
2022/03/04 05:39:08;;;;;;;44.15;21.87;;;;;;;0.93;73.81;100296.59;4424453;32;20148;-79
2022/03/04 05:41:35;;;;;;;51.83;22.95;;;;;;;1.04;73.29;100309.84;4440320;32;20092;-79
2022/03/04 05:44:03;;;;;;;44.97;21.60;;;;;;;0.95;73.98;100306.19;4431931;32;20128;-79
2022/03/04 05:46:32;;;;;;;59.13;22.60;;;;;;;0.98;74.01;100309.69;4424717;32;20093;-78
2022/03/04 05:49:00;;;;;;;44.38;20.92;;;;;;;1.00;74.33;100321.87;4424901;32;20101;-79
2022/03/04 05:51:27;;;;;;;45.63;20.70;;;;;;;1.04;74.16;100325.41;4424625;32;20416;-79
2022/03/04 05:53:55;;;;;;;49.60;22.27;;;;;;;1.13;73.41;100325.63;4424622;32;20225;-79
2022/03/04 05:56:22;;;;;;;47.45;22.58;;;;;;;1.17;73.41;100324.87;4424874;32;20097;-79
2022/03/04 05:58:50;;;;;;;47.60;21.65;;;;;;;1.33;72.32;100324.41;4424906;32;20097;-78
2022/03/04 06:01:17;;;;;;;49.15;22.55;;;;;;;1.59;70.35;100325.06;4424958;32;20760;-79
2022/03/04 06:03:45;;;;;;;47.50;22.42;;;;;;;1.62;70.99;100326.81;4424845;32;20429;-78
2022/03/04 06:06:13;;;;;;;52.25;22.58;;;;;;;1.54;71.37;100325.78;4424720;32;21140;-78
2022/03/04 06:08:41;;;;;;;52.00;23.27;;;;;;;1.56;72.01;100337.09;4424680;32;20159;-79
2022/03/04 06:11:09;;;;;;;49.78;23.90;;;;;;;1.53;72.52;100337.88;4424699;32;20097;-79
2022/03/04 06:13:38;;;;;;;51.35;22.33;;;;;;;1.53;73.03;100339.59;4424389;32;20085;-78
2022/03/04 06:16:05;;;;;;;69.75;25.45;;;;;;;1.51;72.98;100339.53;4410037;32;20098;-78
2022/03/04 06:18:33;;;;;;;56.42;25.88;;;;;;;1.58;71.88;100345.78;4424501;32;20109;-78
2022/03/04 06:21:01;;;;;;;61.78;25.85;;;;;;;1.72;71.15;100344.38;4410000;32;20139;-77
2022/03/04 06:23:29;;;;;;;55.40;24.50;;;;;;;1.74;70.71;100345.28;4410281;32;20077;-78
2022/03/04 06:25:58;;;;;;;50.03;23.33;;;;;;;1.79;70.41;100351.47;4424104;32;20438;-78
2022/03/04 06:28:26;;;;;;;49.40;24.15;;;;;;;1.85;70.19;100353.34;4410323;32;20124;-78
2022/03/04 06:30:54;;;;;;;53.83;23.25;;;;;;;1.86;69.94;100348.16;4424344;32;20109;-79
2022/03/04 06:33:31;;;;;;;57.45;25.88;;;;;;;1.91;69.84;100358.69;4424267;32;20081;-79
2022/03/04 06:36:18;;;;;;;52.17;26.45;;;;;;;1.90;69.93;100354.31;4424316;32;20094;-77
2022/03/04 06:38:46;;;;;;;69.22;24.60;;;;;;;1.94;69.71;100370.84;4424116;32;20113;-77
2022/03/04 06:41:14;;;;;;;59.33;26.50;;;;;;;2.04;68.87;100372.81;4424405;32;20139;-77
2022/03/04 06:43:43;;;;;;;58.05;26.00;;;;;;;2.10;68.74;100370.34;4424489;32;20183;-78
2022/03/04 06:46:10;;;;;;;64.00;26.65;;;;;;;2.21;68.25;100374.06;4424156;32;20783;-78
2022/03/04 06:48:38;;;;;;;60.58;26.02;;;;;;;2.34;67.63;100378.69;4423953;32;20117;-78
2022/03/04 06:51:05;;;;;;;53.95;25.30;;;;;;;2.43;67.10;100375.38;4410098;32;20113;-76
2022/03/04 06:53:33;;;;;;;50.42;23.35;;;;;;;2.62;66.34;100374.06;4424866;32;20073;-77
2022/03/04 06:56:00;;;;;;;50.67;25.25;;;;;;;2.75;66.78;100376.03;4424850;32;20772;-78
2022/03/04 06:58:27;;;;;;;59.92;24.00;;;;;;;2.73;66.85;100377.75;4410123;32;20117;-76
2022/03/04 07:00:56;;;;;;;56.42;24.23;;;;;;;2.78;66.72;100368.28;4425018;32;20169;-77
2022/03/04 07:03:23;;;;;;;47.03;23.75;;;;;;;2.88;66.62;100372.81;4425286;32;20114;-77
2022/03/04 07:05:51;;;;;;;51.55;23.33;;;;;;;3.02;66.06;100385.22;4425021;32;20483;-76
2022/03/04 07:08:19;;;;;;;50.72;24.95;;;;;;;3.15;65.46;100378.53;4424999;32;20090;-75
2022/03/04 07:10:47;;;;;;;56.70;24.10;;;;;;;3.09;65.69;100381.88;4425196;32;20468;-76
2022/03/04 07:13:15;;;;;;;49.05;24.42;;;;;;;3.34;65.28;100385.78;4425045;32;20166;-76
2022/03/04 07:15:43;;;;;;;48.80;23.17;;;;;;;3.45;64.78;100391.19;4411107;32;20089;-77
2022/03/04 07:18:12;;;;;;;49.88;23.05;;;;;;;3.66;64.20;100386.34;4424760;32;20123;-76
2022/03/04 07:20:40;;;;;;;51.15;23.10;;;;;;;3.86;62.58;100384.06;4424670;32;20137;-77
2022/03/04 07:23:08;;;;;;;54.10;23.58;;;;;;;3.83;63.23;100394.44;4409927;32;20089;-78
2022/03/04 07:25:35;;;;;;;51.42;23.75;;;;;;;3.90;62.83;100393.66;4424493;32;20487;-78
2022/03/04 07:28:03;;;;;;;58.58;25.15;;;;;;;4.10;62.34;100395.69;4424265;32;20109;-77
2022/03/04 07:30:31;;;;;;;46.88;21.33;;;;;;;4.17;61.72;100397.50;4424623;32;20181;-77
2022/03/04 07:32:58;;;;;;;44.53;20.17;;;;;;;4.18;60.63;100402.78;4424444;32;20089;-79
2022/03/04 07:35:27;;;;;;;39.53;19.87;;;;;;;4.30;60.50;100408.16;4423767;32;20128;-77
2022/03/04 07:37:55;;;;;;;40.45;19.85;;;;;;;4.42;59.91;100401.38;4423978;32;20167;-75
2022/03/04 07:40:23;;;;;;;47.45;20.75;;;;;;;4.43;59.86;100410.94;4410484;32;20113;-77
2022/03/04 07:42:50;;;;;;;47.50;20.55;;;;;;;4.35;60.10;100410.84;4424315;32;20089;-79
2022/03/04 07:45:17;;;;;;;49.45;21.40;;;;;;;4.44;60.12;100410.06;4426093;32;20123;-78
2022/03/04 07:47:44;;;;;;;45.12;20.60;;;;;;;4.36;60.13;100411.72;4438718;32;20760;-80
2022/03/04 07:50:14;;;;;;;41.80;19.85;;;;;;;4.24;60.96;100413.31;4439586;32;20101;-78
2022/03/04 07:52:42;;;;;;;49.10;20.83;;;;;;;4.12;62.06;100417.44;4439591;32;20160;-78
2022/03/04 07:55:14;;;;;;;51.15;20.42;;;;;;;4.29;64.96;100427.25;4439530;32;20101;-78
2022/03/04 07:57:43;;;;;;;44.70;18.37;;;;;;;4.45;63.37;100420.53;4439798;32;20539;-78
2022/03/04 08:00:14;;;;;;;52.55;19.87;;;;;;;4.45;61.49;100427.47;4439418;32;20127;-79
2022/03/04 08:02:42;;;;;;;41.63;19.12;;;;;;;4.32;60.90;100432.53;4438534;32;20504;-78
2022/03/04 08:05:10;;;;;;;38.83;19.02;;;;;;;4.23;60.91;100431.50;4439441;32;20506;-78
2022/03/04 08:07:38;;;;;;;41.20;18.55;;;;;;;4.30;60.72;100441.19;4439355;32;20158;-78
2022/03/04 08:10:08;;;;;;;43.95;19.83;;;;;;;4.40;60.50;100443.06;4439411;32;20161;-78
2022/03/04 08:12:37;;;;;;;36.78;19.35;;;;;;;4.32;60.05;100440.34;4424977;32;20198;-77
2022/03/04 08:15:05;;;;;;;43.42;20.25;;;;;;;4.31;62.06;100443.84;4425065;32;20085;-77
2022/03/04 08:17:33;;;;;;;42.67;19.00;;;;;;;4.37;62.00;100444.75;4439421;32;20136;-77
2022/03/04 08:20:01;;;;;;;38.03;19.10;;;;;;;4.30;62.83;100451.63;4438708;32;20132;-78
2022/03/04 08:22:28;;;;;;;45.95;20.33;;;;;;;4.30;64.27;100449.88;4438911;32;20084;-79
2022/03/04 08:24:56;;;;;;;43.72;20.30;;;;;;;4.21;64.73;100454.09;4424709;32;20205;-77
2022/03/04 08:27:23;;;;;;;45.67;20.95;;;;;;;4.04;66.94;100451.22;4439254;32;20097;-78
2022/03/04 08:29:50;;;;;;;46.83;21.12;;;;;;;3.94;67.97;100455.41;4438772;32;20130;-78
2022/03/04 08:32:22;;;;;;;49.92;22.17;;;;;;;3.92;68.20;100459.75;4438857;32;20080;-77
2022/03/04 08:34:51;;;;;;;45.88;19.67;;;;;;;3.78;69.38;100466.44;4439059;32;20069;-77
2022/03/04 08:37:18;;;;;;;40.67;18.33;;;;;;;3.79;69.12;100470.81;4439208;32;20136;-77
2022/03/04 08:39:46;;;;;;;41.60;19.67;;;;;;;3.59;68.92;100468.72;4439158;32;20101;-78
2022/03/04 08:42:13;;;;;;;40.83;20.52;;;;;;;3.54;70.02;100469.50;4424468;32;20526;-77
2022/03/04 08:44:42;;;;;;;44.72;20.80;;;;;;;3.52;69.78;100468.59;4438513;32;20184;-78
2022/03/04 08:47:09;;;;;;;50.03;20.42;;;;;;;3.65;68.82;100472.31;4438155;32;20695;-78
2022/03/04 08:49:36;;;;;;;39.85;19.62;;;;;;;3.68;69.08;100467.16;4439001;32;20097;-78
2022/03/04 08:52:04;;;;;;;41.97;20.27;;;;;;;3.77;68.14;100468.16;4439163;32;20093;-77
2022/03/04 08:54:33;;;;;;;37.40;17.55;;;;;;;4.13;65.85;100464.41;4412014;32;20127;-75
2022/03/04 08:57:00;;;;;;;48.05;18.48;;;;;;;4.15;64.67;100470.53;4424432;32;20128;-77
2022/03/04 08:59:27;;;;;;;56.80;19.83;;;;;;;4.28;64.21;100472.47;4431084;32;20101;-76
2022/03/04 09:01:56;;;;;;;40.50;18.48;;;;;;;4.39;63.97;100474.37;4396755;32;20085;-77
2022/03/04 09:04:24;;;;;;;33.35;17.52;;;;;;;4.43;64.64;100465.72;4408158;32;20119;-75
2022/03/04 09:06:51;;;;;;;40.70;18.73;;;;;;;4.55;62.19;100473.72;4433467;32;20152;-76
2022/03/04 09:09:19;;;;;;;35.42;16.17;;;;;;;4.65;61.97;100467.75;4423318;32;20112;-77
2022/03/04 09:11:46;;;;;;;40.50;17.98;;;;;;;4.98;60.28;100467.34;4428785;32;20090;-76
2022/03/04 09:14:15;;;;;;;41.67;17.05;;;;;;;5.21;58.56;100471.94;4438152;32;20180;-77
2022/03/04 09:16:43;;;;;;;38.63;17.48;;;;;;;5.20;59.02;100463.22;4429493;32;20105;-77
2022/03/04 09:19:10;;;;;;;42.47;19.95;;;;;;;5.46;57.59;100473.06;4440843;32;20089;-78
2022/03/04 09:21:37;;;;;;;44.38;18.67;;;;;;;5.08;58.82;100475.25;4440786;32;20140;-77
2022/03/04 09:24:06;;;;;;;37.15;17.35;;;;;;;5.28;58.51;100464.19;4441144;32;20120;-75
2022/03/04 09:26:34;;;;;;;37.22;18.30;;;;;;;5.53;57.29;100469.66;4440696;32;20093;-78
2022/03/04 09:29:02;;;;;;;39.78;17.83;;;;;;;5.87;56.50;100465.62;4440876;32;20192;-76
2022/03/04 09:31:30;;;;;;;46.65;18.40;;;;;;;5.63;55.29;100479.34;4440737;32;20089;-77
2022/03/04 09:33:58;;;;;;;44.33;18.83;;;;;;;5.73;56.31;100477.72;4440830;32;20098;-77
2022/03/04 09:36:26;;;;;;;40.30;17.70;;;;;;;5.84;54.77;100477.81;4426358;32;20125;-77
2022/03/04 09:38:53;;;;;;;31.55;16.12;;;;;;;5.92;54.68;100477.03;4440625;32;20152;-77
2022/03/04 09:41:21;;;;;;;38.13;18.17;;;;;;;6.53;53.46;100479.22;4440709;32;20154;-77
2022/03/04 09:43:56;;;;;;;49.10;17.90;;;;;;;6.64;53.41;100485.41;4440523;32;20081;-78
2022/03/04 09:46:24;;;;;;;33.30;17.75;;;;;;;6.35;53.37;100486.94;4440838;32;20115;-78
2022/03/04 09:48:52;;;;;;;34.45;17.80;;;;;;;6.58;53.82;100485.34;4440708;32;20093;-77
2022/03/04 09:51:21;;;;;;;43.47;17.62;;;;;;;6.75;51.62;100489.78;4440801;32;20107;-75
2022/03/04 09:53:50;;;;;;;37.60;18.85;;;;;;;6.32;53.04;100492.16;4440913;32;20119;-75
2022/03/04 09:56:19;;;;;;;35.38;18.42;;;;;;;6.43;53.13;100483.53;4441274;32;20175;-74
2022/03/04 09:58:48;;;;;;;40.30;17.37;;;;;;;6.90;51.17;100482.03;4440442;32;20846;-76
2022/03/04 10:01:20;;;;;;;43.35;18.25;;;;;;;6.87;52.08;100482.03;4439748;32;20700;-75
2022/03/04 10:03:53;;;;;;;33.95;17.33;;;;;;;6.48;52.52;100478.31;4440419;32;20136;-77
2022/03/04 10:06:22;;;;;;;41.75;17.00;;;;;;;6.85;50.64;100483.75;4440175;32;20222;-79
2022/03/04 10:08:51;;;;;;;39.63;19.17;;;;;;;7.03;50.70;100481.22;4437269;32;20109;-78
2022/03/04 10:11:32;;;;;;;36.15;18.95;;;;;;;7.36;49.63;100477.84;4432574;32;20085;-78
2022/03/04 10:14:08;;;;;;;35.03;18.58;;;;;;;6.99;51.13;100476.81;4432629;32;20081;-76
2022/03/04 10:16:37;;;;;;;37.88;19.35;;;;;;;7.19;49.85;100472.53;4433117;32;20158;-77
2022/03/04 10:19:09;;;;;;;36.72;18.60;;;;;;;7.22;50.16;100470.81;4433211;32;20139;-77
2022/03/04 10:22:09;;;;;;;35.78;18.42;;;;;;;6.70;51.41;100472.31;4421600;32;20097;-76
2022/03/04 10:24:39;;;;;;;42.95;20.42;;;;;;;6.59;52.68;100481.88;4405802;32;20202;-76
2022/03/04 10:27:12;;;;;;;43.17;20.58;;;;;;;6.33;53.14;100479.09;4426680;32;20094;-76
2022/03/04 10:29:48;;;;;;;37.90;19.62;;;;;;;6.30;53.41;100467.72;4440984;32;20146;-76
2022/03/04 10:32:26;;;;;;;38.93;18.83;;;;;;;6.75;53.50;100471.47;4440772;32;20111;-77
2022/03/04 10:35:06;;;;;;;40.50;19.37;;;;;;;6.82;51.36;100462.78;4440615;32;20196;-78
2022/03/04 10:37:42;;;;;;;41.65;19.50;;;;;;;6.94;52.70;100468.94;4439944;32;20514;-76
2022/03/04 10:40:22;;;;;;;39.38;18.92;;;;;;;7.13;51.66;100464.66;4427959;32;20127;-78
2022/03/04 10:42:52;;;;;;;43.63;19.40;;;;;;;7.22;51.02;100462.94;4424239;32;20728;-78
2022/03/04 10:45:40;;;;;;;36.60;18.05;;;;;;;7.42;50.61;100463.87;4398282;32;20093;-76
2022/03/04 10:48:18;;;;;;;35.55;18.77;;;;;;;7.64;50.12;100463.03;4425306;32;20488;-78
2022/03/04 10:50:56;;;;;;;40.53;18.77;;;;;;;7.71;50.07;100456.06;4424652;32;20101;-78
2022/03/04 10:53:31;;;;;;;39.90;20.20;;;;;;;7.42;51.82;100462.12;4424726;32;20404;-78
2022/03/04 10:56:02;;;;;;;40.95;19.87;;;;;;;7.18;52.18;100462.94;4424810;32;20151;-78
2022/03/04 10:58:36;;;;;;;40.35;19.62;;;;;;;6.66;52.99;100461.84;4429375;32;20116;-76
2022/03/04 11:01:09;;;;;;;43.38;19.42;;;;;;;6.54;54.22;100460.03;4440843;32;20081;-77
2022/03/04 11:03:39;;;;;;;37.83;18.50;;;;;;;6.62;53.44;100460.94;4440853;32;20104;-78
2022/03/04 11:06:10;;;;;;;42.20;19.80;;;;;;;6.89;52.69;100456.69;4425942;32;20121;-78
2022/03/04 11:08:37;;;;;;;51.55;20.92;;;;;;;7.29;51.80;100464.72;4440381;32;20092;-77
2022/03/04 11:11:07;;;;;;;36.40;19.90;;;;;;;7.06;52.44;100464.63;4441073;32;20248;-78
2022/03/04 11:13:36;;;;;;;49.40;22.52;;;;;;;7.19;51.71;100455.94;4440809;32;20142;-77
2022/03/04 11:16:06;;;;;;;48.00;22.20;;;;;;;7.32;51.13;100449.88;4426088;32;20088;-81
2022/03/04 11:18:34;;;;;;;49.67;23.67;;;;;;;7.97;50.24;100450.81;4439975;32;20167;-80
2022/03/04 11:21:04;;;;;;;49.85;24.67;;;;;;;7.65;50.85;100456.91;4439820;32;20105;-80
2022/03/04 11:23:37;;;;;;;45.97;23.27;;;;;;;7.72;51.06;100456.91;4439775;32;20396;-79